Time;durP1;ratioP1;P1;durP2;ratioP2;P2;SDS_P1;SDS_P2;PMS_P1;PMS_P2;Temp;Humidity;BMP_temperature;BMP_pressure;BME280_temperature;BME280_humidity;BME280_pressure;Samples;Min_cycle;Max_cycle;Signal;HPM_P1;HPM_P2
2021/05/27 00:00:30;;;;;;;14.43;9.73;;;8.30;99.90;;;;;;5015822;28;20131;-68
2021/05/27 00:02:58;;;;;;;13.45;9.73;;;8.20;99.90;;;;;;5020744;28;20053;-67
2021/05/27 00:05:25;;;;;;;19.70;11.35;;;8.30;99.90;;;;;;5018656;28;20042;-67
2021/05/27 00:07:52;;;;;;;15.27;11.45;;;8.30;99.90;;;;;;5014836;28;20775;-66
2021/05/27 00:10:23;;;;;;;15.80;10.82;;;8.20;99.90;;;;;;5019156;28;20198;-66
2021/05/27 00:12:50;;;;;;;11.70;10.50;;;8.20;99.90;;;;;;5018432;28;20049;-66
2021/05/27 00:15:19;;;;;;;16.63;9.60;;;8.20;99.90;;;;;;5015903;28;20077;-67
2021/05/27 00:17:46;;;;;;;17.27;9.50;;;8.30;99.90;;;;;;5018179;28;20041;-67
2021/05/27 00:20:13;;;;;;;9.98;8.85;;;8.20;99.90;;;;;;5012702;28;20107;-67
2021/05/27 00:22:41;;;;;;;9.85;8.85;;;8.20;99.90;;;;;;5013924;28;20131;-68
2021/05/27 00:25:09;;;;;;;10.77;8.55;;;8.20;99.90;;;;;;5016412;28;20072;-69
2021/05/27 00:27:40;;;;;;;12.57;8.73;;;8.20;99.90;;;;;;5014405;28;20041;-67
2021/05/27 00:30:08;;;;;;;10.70;8.65;;;8.20;99.90;;;;;;5021157;28;20148;-68
2021/05/27 00:32:35;;;;;;;11.77;8.70;;;8.20;99.90;;;;;;5017216;28;20061;-67
2021/05/27 00:35:03;;;;;;;11.40;7.80;;;8.20;99.90;;;;;;5008784;28;20199;-68
2021/05/27 00:37:30;;;;;;;9.10;7.25;;;8.20;99.90;;;;;;5013619;28;20098;-66
2021/05/27 00:39:58;;;;;;;10.32;9.05;;;8.20;99.90;;;;;;5017630;28;20151;-66
2021/05/27 00:42:25;;;;;;;6.97;6.28;;;8.20;99.90;;;;;;5016887;28;20057;-66
2021/05/27 00:45:00;;;;;;;7.55;6.70;;;8.10;99.90;;;;;;5017523;28;20084;-67
2021/05/27 00:47:28;;;;;;;10.77;7.20;;;8.10;99.90;;;;;;5016284;28;20064;-68
2021/05/27 00:49:55;;;;;;;11.80;7.68;;;8.10;99.90;;;;;;5019593;28;20057;-68
2021/05/27 00:52:23;;;;;;;7.45;6.13;;;8.10;99.90;;;;;;5016296;28;20362;-66
2021/05/27 00:54:53;;;;;;;9.18;6.55;;;8.10;99.90;;;;;;5016033;28;20439;-67
2021/05/27 00:57:32;;;;;;;6.40;5.80;;;8.10;99.90;;;;;;5013821;28;20054;-67
2021/05/27 01:00:01;;;;;;;6.55;5.88;;;8.10;99.90;;;;;;5016255;28;20598;-69
2021/05/27 01:02:29;;;;;;;7.25;5.65;;;8.10;99.90;;;;;;5051454;28;20057;-67
2021/05/27 01:04:56;;;;;;;8.55;5.53;;;8.10;99.90;;;;;;5021930;28;20053;-68
2021/05/27 01:07:23;;;;;;;8.82;5.28;;;8.10;99.90;;;;;;5015022;28;20158;-67
2021/05/27 01:09:51;;;;;;;5.40;4.90;;;8.10;99.90;;;;;;5017157;28;20063;-66
2021/05/27 01:12:19;;;;;;;5.63;4.82;;;8.10;99.90;;;;;;5050690;28;20052;-67
2021/05/27 01:17:36;;;;;;;5.65;5.15;;;8.10;99.90;;;;;;5016311;28;20628;-66
2021/05/27 01:20:08;;;;;;;5.78;5.28;;;8.10;99.90;;;;;;5050992;28;20141;-69
2021/05/27 01:22:36;;;;;;;4.55;4.15;;;8.10;99.90;;;;;;5021521;28;20042;-67
2021/05/27 01:25:06;;;;;;;7.95;5.13;;;8.10;99.90;;;;;;5025435;28;20108;-66
2021/05/27 01:27:33;;;;;;;5.05;4.40;;;8.00;99.90;;;;;;5022178;28;20500;-68
2021/05/27 01:30:05;;;;;;;5.45;4.95;;;8.00;99.90;;;;;;5020779;28;20199;-66
2021/05/27 01:32:35;;;;;;;6.28;5.38;;;8.00;99.90;;;;;;5019367;28;20045;-66
2021/05/27 01:35:04;;;;;;;7.22;5.25;;;8.00;99.90;;;;;;5023607;28;20045;-66
2021/05/27 01:37:31;;;;;;;9.02;5.35;;;8.00;99.90;;;;;;5019681;28;20057;-67
2021/05/27 01:40:01;;;;;;;8.07;5.70;;;8.00;99.90;;;;;;5017042;28;20048;-68
2021/05/27 01:42:28;;;;;;;7.03;6.40;;;8.00;99.90;;;;;;5010715;28;20045;-67
2021/05/27 01:44:55;;;;;;;7.28;6.57;;;8.10;99.90;;;;;;5029257;28;20139;-66
2021/05/27 01:47:23;;;;;;;7.88;7.18;;;8.10;99.90;;;;;;5050433;28;20496;-68
2021/05/27 01:49:50;;;;;;;7.90;7.18;;;8.10;99.90;;;;;;5022587;28;20126;-68
2021/05/27 01:52:17;;;;;;;7.75;6.95;;;8.20;99.90;;;;;;5021486;28;20119;-68
2021/05/27 01:54:46;;;;;;;11.63;7.43;;;8.20;99.90;;;;;;5024246;28;20041;-68
2021/05/27 01:57:13;;;;;;;9.93;7.43;;;8.20;99.90;;;;;;5020330;28;20054;-66
2021/05/27 01:59:42;;;;;;;8.48;7.40;;;8.20;99.90;;;;;;5021915;28;20065;-67
2021/05/27 02:02:11;;;;;;;11.73;7.65;;;8.20;99.90;;;;;;5036198;28;20045;-68
2021/05/27 02:04:38;;;;;;;12.25;8.23;;;8.20;99.90;;;;;;5052515;28;20474;-67
2021/05/27 02:07:09;;;;;;;10.38;7.93;;;8.20;99.90;;;;;;5020337;28;20124;-67
2021/05/27 02:09:36;;;;;;;9.50;6.75;;;8.20;99.90;;;;;;5016797;28;20057;-67
2021/05/27 02:12:04;;;;;;;9.38;8.05;;;8.20;99.90;;;;;;5019234;28;20195;-68
2021/05/27 02:14:32;;;;;;;9.45;8.15;;;8.20;99.90;;;;;;5019125;28;20045;-68
2021/05/27 02:16:59;;;;;;;11.15;7.50;;;8.20;99.90;;;;;;5018909;28;20469;-67
2021/05/27 02:19:26;;;;;;;7.95;7.15;;;8.20;99.90;;;;;;5052437;28;20126;-68
2021/05/27 02:21:53;;;;;;;10.10;8.02;;;8.20;99.90;;;;;;5021053;28;20115;-67
2021/05/27 02:24:43;;;;;;;14.07;7.10;;;8.20;99.90;;;;;;5012765;28;20080;-68
2021/05/27 02:27:12;;;;;;;9.52;7.25;;;8.20;99.90;;;;;;5049079;28;20053;-67
2021/05/27 02:29:39;;;;;;;12.68;8.80;;;8.20;99.90;;;;;;5016517;28;20044;-66
2021/05/27 02:32:10;;;;;;;11.60;7.85;;;8.20;99.90;;;;;;5019328;28;20147;-67
2021/05/27 02:34:38;;;;;;;10.32;8.38;;;8.20;99.90;;;;;;5020431;28;20074;-66
2021/05/27 02:37:08;;;;;;;11.88;7.47;;;8.20;99.90;;;;;;5018002;28;20049;-68
2021/05/27 02:39:39;;;;;;;13.00;8.40;;;8.30;99.90;;;;;;5054730;28;20076;-66
2021/05/27 02:42:06;;;;;;;10.15;5.97;;;8.30;99.90;;;;;;5019911;28;20042;-67
2021/05/27 02:44:34;;;;;;;8.02;5.78;;;8.40;99.90;;;;;;5054656;28;20053;-68
2021/05/27 02:47:02;;;;;;;9.52;6.20;;;8.40;99.90;;;;;;5018470;28;20163;-66
2021/05/27 02:49:29;;;;;;;9.27;6.20;;;8.40;99.90;;;;;;5052323;28;20034;-66
2021/05/27 02:51:59;;;;;;;8.20;5.40;;;8.40;99.90;;;;;;5021881;28;20580;-66
2021/05/27 02:54:29;;;;;;;6.45;5.28;;;8.40;99.90;;;;;;5022814;28;20053;-66
2021/05/27 02:56:59;;;;;;;7.60;5.97;;;8.40;99.90;;;;;;5018500;28;20052;-66
2021/05/27 02:59:30;;;;;;;7.10;5.00;;;8.40;99.90;;;;;;5052498;28;20160;-66
2021/05/27 03:02:00;;;;;;;5.97;5.38;;;8.40;99.90;;;;;;5015249;28;20577;-66
2021/05/27 03:04:27;;;;;;;6.18;5.05;;;8.40;99.90;;;;;;5040006;28;20049;-68
2021/05/27 03:06:57;;;;;;;8.23;4.88;;;8.50;99.90;;;;;;5019529;28;20448;-66
2021/05/27 03:09:26;;;;;;;6.53;4.85;;;8.50;99.90;;;;;;5051224;28;20056;-67
2021/05/27 03:11:54;;;;;;;5.53;4.57;;;8.50;99.90;;;;;;5049372;28;20091;-68
2021/05/27 03:14:22;;;;;;;8.13;4.47;;;8.60;99.90;;;;;;5048813;28;20094;-66
2021/05/27 03:16:54;;;;;;;4.70;4.20;;;8.70;99.90;;;;;;5015345;28;20544;-66
2021/05/27 03:19:22;;;;;;;5.20;4.57;;;8.80;99.90;;;;;;5020771;28;20903;-66
2021/05/27 03:21:49;;;;;;;4.30;3.90;;;8.80;99.90;;;;;;5016934;28;20841;-68
2021/05/27 03:24:16;;;;;;;5.22;4.07;;;8.90;99.90;;;;;;5023432;28;20099;-67
2021/05/27 03:26:43;;;;;;;4.43;3.53;;;9.00;99.90;;;;;;5018242;28;20426;-67
2021/05/27 03:29:13;;;;;;;6.03;3.92;;;9.10;99.90;;;;;;5018167;28;20744;-66
2021/05/27 03:31:41;;;;;;;5.00;4.43;;;9.10;99.90;;;;;;5017360;28;20041;-67
2021/05/27 03:34:08;;;;;;;5.28;4.80;;;9.10;99.90;;;;;;5019813;28;20290;-67
2021/05/27 03:36:35;;;;;;;5.22;3.97;;;9.10;99.90;;;;;;5012417;28;20151;-68
2021/05/27 03:39:06;;;;;;;7.00;4.07;;;9.10;99.90;;;;;;5020552;28;20060;-67
2021/05/27 03:41:33;;;;;;;3.60;3.30;;;9.20;99.90;;;;;;5016735;28;20330;-66
2021/05/27 03:44:04;;;;;;;3.85;3.45;;;9.20;99.90;;;;;;5019084;28;20121;-67
2021/05/27 03:46:35;;;;;;;5.50;3.13;;;9.20;99.90;;;;;;5019167;28;20049;-67
2021/05/27 03:49:02;;;;;;;3.75;3.22;;;9.20;99.90;;;;;;5022651;28;20038;-68
2021/05/27 03:51:30;;;;;;;6.05;4.53;;;9.30;99.90;;;;;;5015766;28;20045;-67
2021/05/27 03:53:57;;;;;;;5.65;3.30;;;9.30;99.90;;;;;;5023533;28;20119;-66
2021/05/27 03:56:27;;;;;;;3.90;3.60;;;9.30;99.90;;;;;;5017742;28;20056;-66
2021/05/27 04:01:58;;;;;;;4.97;3.70;;;9.40;99.90;;;;;;5045254;28;20049;-67
2021/05/27 04:07:21;;;;;;;3.83;3.08;;;9.40;99.90;;;;;;5014658;28;20160;-66
2021/05/27 04:09:48;;;;;;;5.93;3.13;;;9.40;99.90;;;;;;5019210;28;20041;-68
2021/05/27 04:15:21;;;;;;;4.90;3.15;;;9.50;99.90;;;;;;5015500;28;20145;-68
2021/05/27 04:17:56;;;;;;;2.90;2.70;;;9.60;99.90;;;;;;5016924;28;20111;-66
2021/05/27 04:20:26;;;;;;;2.47;2.28;;;9.60;99.90;;;;;;5019260;28;20129;-67
2021/05/27 04:22:53;;;;;;;3.33;2.10;;;9.70;99.90;;;;;;5023730;28;20045;-67
2021/05/27 04:25:22;;;;;;;3.70;2.30;;;9.70;99.90;;;;;;5015045;28;20103;-66
2021/05/27 04:27:50;;;;;;;5.95;2.75;;;9.70;99.90;;;;;;5015412;28;20041;-66
2021/05/27 04:30:18;;;;;;;1.90;1.80;;;9.70;99.90;;;;;;5022227;28;20134;-66
2021/05/27 04:32:59;;;;;;;2.95;2.75;;;9.80;99.90;;;;;;5015574;28;20076;-69
2021/05/27 04:35:27;;;;;;;;;;;9.80;99.90;;;;;;5018985;28;20107;-67
2021/05/27 04:37:57;;;;;;;2.70;2.50;;;9.80;99.90;;;;;;5017884;28;20019;-67
2021/05/27 04:40:24;;;;;;;3.20;3.00;;;9.90;99.90;;;;;;5019191;28;20053;-67
2021/05/27 04:42:51;;;;;;;2.97;2.78;;;9.90;99.90;;;;;;5019505;28;20073;-67
2021/05/27 04:45:18;;;;;;;3.00;2.20;;;10.00;99.90;;;;;;5019028;28;20045;-68
2021/05/27 04:47:45;;;;;;;3.72;2.35;;;10.00;99.90;;;;;;5015391;28;20069;-67
2021/05/27 04:50:13;;;;;;;7.13;2.47;;;10.10;99.90;;;;;;5020116;28;20057;-68
2021/05/27 04:52:40;;;;;;;2.65;2.00;;;10.10;99.90;;;;;;5019920;28;20069;-66
2021/05/27 04:55:10;;;;;;;2.90;2.38;;;10.10;99.90;;;;;;5021275;28;20099;-67
2021/05/27 04:57:37;;;;;;;3.80;2.17;;;10.10;99.90;;;;;;5025560;28;20852;-66
2021/05/27 05:00:09;;;;;;;2.60;2.40;;;10.20;99.90;;;;;;5022575;28;20075;-67
2021/05/27 05:02:37;;;;;;;4.47;1.90;;;10.30;99.90;;;;;;5023401;28;20042;-67
2021/05/27 05:05:05;;;;;;;1.67;1.58;;;10.30;99.90;;;;;;5019570;28;20053;-67
2021/05/27 05:07:33;;;;;;;3.05;2.42;;;10.40;99.90;;;;;;5022449;28;20046;-66
2021/05/27 05:10:00;;;;;;;3.42;2.35;;;10.40;99.90;;;;;;5020160;28;20128;-67
2021/05/27 05:12:27;;;;;;;2.65;2.45;;;10.40;99.90;;;;;;5020575;28;20457;-67
2021/05/27 05:14:54;;;;;;;4.38;2.42;;;10.40;99.90;;;;;;5027008;28;20467;-67
2021/05/27 05:17:21;;;;;;;3.97;2.20;;;10.30;99.90;;;;;;5021167;28;20049;-68
2021/05/27 05:19:48;;;;;;;3.42;2.10;;;10.30;99.90;;;;;;5025625;28;20107;-66
2021/05/27 05:22:15;;;;;;;3.65;2.75;;;10.30;99.90;;;;;;5013911;28;20053;-67
2021/05/27 05:24:42;;;;;;;2.97;2.78;;;10.30;99.90;;;;;;5020416;28;20045;-68
2021/05/27 05:27:08;;;;;;;3.40;3.00;;;10.40;99.90;;;;;;5019162;28;20131;-68
2021/05/27 05:29:35;;;;;;;3.03;2.60;;;10.40;99.90;;;;;;5017707;28;20042;-67
2021/05/27 05:32:03;;;;;;;3.97;2.47;;;10.50;99.90;;;;;;5015542;28;20041;-66
2021/05/27 05:34:30;;;;;;;3.50;3.13;;;10.60;99.90;;;;;;5022154;28;20057;-67
2021/05/27 05:36:57;;;;;;;3.40;3.05;;;10.60;99.90;;;;;;5020699;28;20059;-68
2021/05/27 05:39:24;;;;;;;3.50;2.70;;;10.70;99.90;;;;;;5019859;28;20123;-68
2021/05/27 05:41:51;;;;;;;7.43;3.08;;;10.80;99.90;;;;;;5019592;28;20218;-66
2021/05/27 05:44:18;;;;;;;4.78;2.47;;;10.90;99.90;;;;;;5017159;28;20049;-68
2021/05/27 05:46:45;;;;;;;3.28;3.03;;;11.00;99.90;;;;;;5017384;28;20600;-67
2021/05/27 05:49:12;;;;;;;3.42;2.90;;;11.00;99.90;;;;;;5024538;28;20041;-66
2021/05/27 05:51:39;;;;;;;4.57;2.70;;;11.00;99.90;;;;;;5019225;28;20045;-67
2021/05/27 05:54:06;;;;;;;6.55;2.97;;;11.00;99.90;;;;;;5020680;28;20487;-67
2021/05/27 05:56:33;;;;;;;3.45;3.13;;;11.00;99.90;;;;;;5021000;28;20037;-66
2021/05/27 05:59:00;;;;;;;3.80;2.65;;;11.00;99.90;;;;;;5030088;28;20092;-67
2021/05/27 06:01:27;;;;;;;3.60;2.80;;;11.00;99.90;;;;;;5018893;28;20057;-67
2021/05/27 06:03:54;;;;;;;3.35;2.65;;;11.00;99.90;;;;;;5056219;28;20073;-66
2021/05/27 06:06:53;;;;;;;3.75;3.33;;;11.00;99.90;;;;;;5012356;28;20053;-67
2021/05/27 06:09:20;;;;;;;3.22;2.38;;;10.90;99.90;;;;;;5022414;28;20046;-66
2021/05/27 06:11:47;;;;;;;3.70;3.33;;;10.90;99.90;;;;;;5015621;28;20607;-67
2021/05/27 06:14:14;;;;;;;4.03;2.63;;;10.80;99.90;;;;;;5019244;28;20503;-68
2021/05/27 06:16:41;;;;;;;4.65;2.83;;;10.90;99.90;;;;;;5019813;28;20467;-66
2021/05/27 06:19:07;;;;;;;4.95;2.97;;;10.80;99.90;;;;;;5016112;28;20138;-67
2021/05/27 06:21:41;;;;;;;6.90;2.97;;;10.90;99.90;;;;;;5018593;28;20128;-68
2021/05/27 06:24:18;;;;;;;4.55;2.55;;;10.90;99.90;;;;;;5020637;28;20044;-66
2021/05/27 06:26:45;;;;;;;3.38;3.08;;;10.90;99.90;;;;;;5020930;28;20058;-67
2021/05/27 06:29:13;;;;;;;3.20;3.00;;;10.90;99.90;;;;;;5020513;28;20041;-67
2021/05/27 06:31:45;;;;;;;10.13;3.25;;;10.90;99.90;;;;;;5019324;28;20766;-67
2021/05/27 06:34:12;;;;;;;4.45;3.17;;;10.90;99.90;;;;;;5015053;28;20129;-67
2021/05/27 06:36:39;;;;;;;2.55;2.35;;;11.00;99.90;;;;;;5017020;28;20042;-68
2021/05/27 06:39:06;;;;;;;2.80;2.60;;;11.00;99.90;;;;;;5016880;28;20804;-67
2021/05/27 06:41:33;;;;;;;3.13;2.00;;;11.00;99.90;;;;;;5015784;28;20502;-67
2021/05/27 06:44:00;;;;;;;3.63;2.60;;;11.00;99.90;;;;;;5013306;28;20045;-67
2021/05/27 06:46:27;;;;;;;3.05;2.67;;;11.00;99.90;;;;;;5017568;28;20816;-67
2021/05/27 06:48:56;;;;;;;3.10;2.80;;;11.00;99.90;;;;;;5014846;28;20100;-68
2021/05/27 06:51:23;;;;;;;3.33;2.75;;;10.90;99.90;;;;;;5013406;28;20061;-66
2021/05/27 06:53:51;;;;;;;3.85;3.00;;;10.80;99.90;;;;;;5021513;28;20103;-68
2021/05/27 06:56:22;;;;;;;9.70;2.67;;;10.80;99.90;;;;;;5018964;28;20049;-66
2021/05/27 06:58:49;;;;;;;6.20;2.50;;;10.70;99.90;;;;;;5017728;28;20046;-68
2021/05/27 07:01:16;;;;;;;4.03;2.70;;;10.70;99.90;;;;;;5009057;28;20657;-68
2021/05/27 07:03:43;;;;;;;5.03;2.85;;;10.70;99.90;;;;;;5017449;28;20085;-67
2021/05/27 07:06:11;;;;;;;5.07;3.28;;;10.70;99.90;;;;;;5014561;28;20104;-67
2021/05/27 07:08:39;;;;;;;3.67;2.53;;;10.70;99.90;;;;;;5013629;28;20053;-68
2021/05/27 07:11:06;;;;;;;2.50;2.30;;;10.70;99.90;;;;;;5016583;28;20510;-68
2021/05/27 07:13:33;;;;;;;3.97;2.50;;;10.70;99.90;;;;;;5015061;28;20099;-67
2021/05/27 07:16:00;;;;;;;5.30;3.25;;;10.60;99.90;;;;;;5019939;28;20136;-68
2021/05/27 07:18:27;;;;;;;3.15;2.85;;;10.70;99.90;;;;;;5016257;28;20118;-68
2021/05/27 07:20:54;;;;;;;3.83;2.50;;;10.70;99.90;;;;;;5019403;28;20041;-67
2021/05/27 07:23:21;;;;;;;2.10;1.90;;;10.60;99.90;;;;;;5017653;28;20643;-69
2021/05/27 07:25:48;;;;;;;2.72;2.47;;;10.40;99.90;;;;;;5021960;28;20118;-67
2021/05/27 07:28:15;;;;;;;1.80;1.70;;;10.20;99.90;;;;;;5023832;28;20079;-68
2021/05/27 07:30:42;;;;;;;4.10;1.92;;;10.10;99.90;;;;;;5019433;28;20395;-66
2021/05/27 07:33:09;;;;;;;3.55;1.88;;;10.10;99.90;;;;;;5018896;28;20068;-67
2021/05/27 07:35:36;;;;;;;2.92;1.60;;;10.10;99.90;;;;;;5018967;28;20411;-66
2021/05/27 07:38:03;;;;;;;1.98;1.50;;;10.20;99.90;;;;;;5015445;28;20096;-67
2021/05/27 07:40:30;;;;;;;1.40;1.30;;;10.00;99.90;;;;;;5025054;28;20052;-68
2021/05/27 07:42:57;;;;;;;7.63;1.50;;;10.00;99.90;;;;;;5017083;28;20443;-68
2021/05/27 07:45:24;;;;;;;2.08;1.52;;;10.10;99.90;;;;;;5018186;28;20054;-67
2021/05/27 07:47:51;;;;;;;4.15;1.55;;;10.10;99.90;;;;;;5015127;28;20045;-66
2021/05/27 07:50:20;;;;;;;1.75;0.85;;;10.20;99.90;;;;;;5018427;28;20042;-67
2021/05/27 07:52:52;;;;;;;1.23;0.80;;;10.10;99.90;;;;;;5017161;28;20041;-66
2021/05/27 07:55:19;;;;;;;1.10;0.90;;;10.20;99.90;;;;;;5015933;28;20052;-67
2021/05/27 07:57:48;;;;;;;1.73;1.23;;;10.30;99.90;;;;;;5017685;28;20248;-66
2021/05/27 08:00:16;;;;;;;0.80;0.80;;;10.20;99.90;;;;;;5017322;28;20558;-67
2021/05/27 08:02:43;;;;;;;2.03;1.17;;;10.30;99.90;;;;;;5020339;28;20103;-67
2021/05/27 08:05:13;;;;;;;0.88;0.63;;;10.20;99.90;;;;;;5018098;28;20054;-66
2021/05/27 08:07:40;;;;;;;1.50;0.90;;;10.20;99.90;;;;;;5012035;28;20057;-68
2021/05/27 08:10:10;;;;;;;1.10;1.00;;;10.30;99.90;;;;;;5020791;28;20376;-68
2021/05/27 08:12:37;;;;;;;1.42;0.85;;;10.30;99.90;;;;;;5019029;28;20104;-69
2021/05/27 08:15:05;;;;;;;1.35;0.93;;;10.30;99.90;;;;;;5018734;28;20783;-66
2021/05/27 08:17:32;;;;;;;3.35;1.70;;;10.20;99.90;;;;;;5051237;28;20057;-68
2021/05/27 08:20:00;;;;;;;1.67;1.52;;;10.40;99.90;;;;;;5047957;28;20084;-68
2021/05/27 08:22:27;;;;;;;2.28;1.08;;;10.40;99.90;;;;;;5017055;28;20091;-67
2021/05/27 08:24:56;;;;;;;1.30;1.17;;;10.40;99.90;;;;;;5018250;28;20086;-67
2021/05/27 08:27:23;;;;;;;1.17;1.08;;;10.20;99.90;;;;;;5015958;28;20064;-67
2021/05/27 08:29:50;;;;;;;1.15;0.90;;;10.20;99.90;;;;;;5016746;28;20526;-66
2021/05/27 08:32:18;;;;;;;1.25;1.15;;;10.20;99.90;;;;;;5016743;28;20136;-67
2021/05/27 08:34:44;;;;;;;1.92;0.60;;;10.30;99.90;;;;;;5019231;28;20061;-68
2021/05/27 08:37:11;;;;;;;1.38;1.10;;;10.20;99.90;;;;;;5017828;28;20141;-67
2021/05/27 08:39:40;;;;;;;0.80;0.60;;;10.20;99.90;;;;;;5017892;28;20169;-68
2021/05/27 08:42:07;;;;;;;2.00;0.50;;;10.20;99.90;;;;;;5020770;28;20768;-66
2021/05/27 08:44:39;;;;;;;2.75;0.77;;;10.10;99.90;;;;;;5021280;28;20503;-67
2021/05/27 08:47:06;;;;;;;1.45;0.60;;;10.10;99.90;;;;;;5016421;28;20452;-66
2021/05/27 08:49:35;;;;;;;4.82;0.90;;;10.10;99.90;;;;;;5014414;28;20157;-66
2021/05/27 08:52:03;;;;;;;1.83;0.70;;;10.10;99.90;;;;;;5019698;28;20072;-66
2021/05/27 08:54:30;;;;;;;1.05;0.40;;;10.10;99.90;;;;;;5020389;28;20057;-68
2021/05/27 08:57:03;;;;;;;1.20;0.85;;;10.10;99.90;;;;;;5012188;28;20046;-68
2021/05/27 08:59:30;;;;;;;0.52;0.30;;;10.10;99.90;;;;;;5016581;28;20131;-67
2021/05/27 09:02:08;;;;;;;3.85;0.68;;;10.00;99.90;;;;;;5016830;28;20507;-67
2021/05/27 09:04:36;;;;;;;0.47;0.25;;;10.10;99.90;;;;;;5018762;28;20510;-67
2021/05/27 09:07:03;;;;;;;0.77;0.20;;;10.20;99.90;;;;;;5009230;28;20523;-68
2021/05/27 09:09:53;;;;;;;0.68;0.47;;;10.30;99.90;;;;;;5018706;28;20042;-66
2021/05/27 09:12:33;;;;;;;0.32;0.20;;;10.40;99.90;;;;;;5014080;28;20544;-66
2021/05/27 09:15:03;;;;;;;1.50;0.57;;;10.30;99.90;;;;;;5018679;28;20092;-66
2021/05/27 09:17:44;;;;;;;0.20;0.20;;;10.20;99.90;;;;;;5014909;28;20036;-66
2021/05/27 09:20:22;;;;;;;0.52;0.20;;;10.00;99.90;;;;;;5017905;28;20045;-67
2021/05/27 09:23:07;;;;;;;1.67;1.45;;;10.00;99.90;;;;;;5015776;28;20600;-66
2021/05/27 09:25:37;;;;;;;1.23;0.20;;;10.00;99.90;;;;;;5016514;28;20547;-66
2021/05/27 09:28:06;;;;;;;1.35;0.22;;;10.10;99.90;;;;;;5010677;28;20045;-69
2021/05/27 09:30:53;;;;;;;0.63;0.20;;;10.10;99.90;;;;;;5017435;28;20455;-67
2021/05/27 09:33:29;;;;;;;0.28;0.10;;;10.00;99.90;;;;;;5015639;28;20049;-68
2021/05/27 09:36:02;;;;;;;0.20;0.20;;;10.00;99.90;;;;;;5020274;28;20045;-66
2021/05/27 09:38:30;;;;;;;0.17;0.00;;;9.90;99.90;;;;;;5008771;28;20049;-67
2021/05/27 09:40:58;;;;;;;0.22;0.10;;;9.80;99.90;;;;;;5021352;28;20045;-67
2021/05/27 09:43:26;;;;;;;0.20;0.17;;;9.80;99.90;;;;;;5020059;28;20045;-69
2021/05/27 09:46:02;;;;;;;1.65;0.30;;;9.70;99.90;;;;;;5021710;28;20060;-67
2021/05/27 09:48:29;;;;;;;1.10;0.32;;;9.80;99.90;;;;;;5016447;28;20049;-69
2021/05/27 09:50:58;;;;;;;1.00;0.50;;;9.80;99.90;;;;;;5019489;28;20096;-67
2021/05/27 09:53:26;;;;;;;0.43;0.22;;;9.80;99.90;;;;;;5019546;28;20037;-69
2021/05/27 09:55:55;;;;;;;0.57;0.40;;;9.80;99.90;;;;;;5018652;28;20121;-67
2021/05/27 09:58:24;;;;;;;7.35;0.80;;;9.80;99.90;;;;;;5020502;28;20057;-66
2021/05/27 10:00:53;;;;;;;1.50;0.43;;;9.70;99.90;;;;;;5022139;28;20053;-67
2021/05/27 10:03:33;;;;;;;0.98;0.30;;;9.70;99.90;;;;;;5015323;28;20053;-67
2021/05/27 10:06:09;;;;;;;3.20;0.40;;;9.70;99.90;;;;;;5022368;28;20053;-67
2021/05/27 10:08:56;;;;;;;0.60;0.28;;;9.70;99.90;;;;;;5018141;28;20069;-68
2021/05/27 10:11:25;;;;;;;2.78;0.40;;;9.70;99.90;;;;;;5028575;28;20037;-66
2021/05/27 10:13:54;;;;;;;0.60;0.60;;;9.70;99.90;;;;;;5021847;28;20037;-67
2021/05/27 10:16:25;;;;;;;0.63;0.57;;;9.80;99.90;;;;;;5021934;28;20076;-68
2021/05/27 10:18:56;;;;;;;1.35;1.13;;;9.80;99.90;;;;;;5018601;28;20053;-68
2021/05/27 10:21:24;;;;;;;1.42;0.40;;;9.80;99.90;;;;;;5017466;28;20045;-67
2021/05/27 10:23:54;;;;;;;1.13;0.60;;;9.90;99.90;;;;;;5016049;28;20143;-67
2021/05/27 10:26:22;;;;;;;1.10;0.32;;;9.90;99.90;;;;;;5010410;28;20072;-67
2021/05/27 10:29:09;;;;;;;0.52;0.43;;;10.00;99.90;;;;;;5024713;28;20689;-67
2021/05/27 10:31:43;;;;;;;0.90;0.40;;;10.10;99.90;;;;;;5020461;28;20080;-68
2021/05/27 10:34:46;;;;;;;0.38;0.32;;;10.20;99.90;;;;;;5020855;28;20057;-68
2021/05/27 10:37:38;;;;;;;4.50;0.63;;;10.20;99.90;;;;;;5017393;28;20445;-67
2021/05/27 10:40:21;;;;;;;2.25;0.50;;;10.30;99.90;;;;;;5013394;28;20138;-67
2021/05/27 10:43:12;;;;;;;6.20;0.60;;;10.10;99.90;;;;;;5019520;28;20295;-69
2021/05/27 10:45:58;;;;;;;0.30;0.30;;;10.10;99.90;;;;;;5019415;28;20123;-70
2021/05/27 10:48:26;;;;;;;1.35;0.57;;;10.10;99.90;;;;;;5019627;28;20073;-67
2021/05/27 10:53:41;;;;;;;1.80;0.90;;;10.10;99.90;;;;;;5016733;28;20081;-69
2021/05/27 10:56:15;;;;;;;7.57;0.50;;;10.10;99.90;;;;;;5016054;28;20081;-69
2021/05/27 10:58:48;;;;;;;1.20;0.47;;;10.10;99.90;;;;;;5020791;28;20593;-67
2021/05/27 11:01:16;;;;;;;0.80;0.50;;;10.20;99.90;;;;;;5016144;28;20212;-67
2021/05/27 11:03:50;;;;;;;0.57;0.32;;;10.20;99.90;;;;;;5020295;28;20050;-67
2021/05/27 11:06:22;;;;;;;0.20;0.13;;;10.20;99.90;;;;;;5019055;28;20057;-67
2021/05/27 11:09:24;;;;;;;1.20;0.30;;;10.40;99.90;;;;;;5016055;28;20454;-67
2021/05/27 11:11:57;;;;;;;0.57;0.45;;;10.40;99.90;;;;;;5016135;28;20053;-69
2021/05/27 11:14:36;;;;;;;1.75;1.25;;;10.30;99.90;;;;;;5018630;28;20037;-67
2021/05/27 11:17:07;;;;;;;0.93;0.50;;;10.30;99.90;;;;;;5018431;28;20076;-69
2021/05/27 11:20:01;;;;;;;1.13;0.35;;;10.40;99.90;;;;;;5025502;28;20053;-67
2021/05/27 11:25:16;;;;;;;0.55;0.20;;;10.40;99.90;;;;;;5019415;28;20472;-68
2021/05/27 11:27:59;;;;;;;0.30;0.30;;;10.30;99.90;;;;;;5036203;28;20053;-66
2021/05/27 11:30:33;;;;;;;1.90;0.63;;;10.20;99.90;;;;;;5011580;28;20256;-66
2021/05/27 11:33:05;;;;;;;0.80;0.60;;;10.30;99.90;;;;;;5018939;28;20040;-67
2021/05/27 11:35:38;;;;;;;0.50;0.20;;;10.30;99.90;;;;;;5015132;28;20042;-69
2021/05/27 11:38:15;;;;;;;0.20;0.20;;;10.40;99.90;;;;;;5019192;28;20049;-66
2021/05/27 11:40:45;;;;;;;0.10;0.10;;;10.50;99.90;;;;;;5019240;28;20041;-66
2021/05/27 11:43:13;;;;;;;0.37;0.37;;;10.40;99.90;;;;;;5019562;28;20053;-67
2021/05/27 11:45:50;;;;;;;1.15;0.32;;;10.40;99.90;;;;;;5015092;28;20136;-67
2021/05/27 11:48:28;;;;;;;0.40;0.20;;;10.40;99.90;;;;;;5022907;28;20045;-68
2021/05/27 11:51:13;;;;;;;0.30;0.20;;;10.40;99.90;;;;;;5016227;28;20542;-68
2021/05/27 11:54:01;;;;;;;1.65;0.20;;;10.20;99.90;;;;;;5018925;28;20671;-66
2021/05/27 11:56:31;;;;;;;0.43;0.20;;;10.30;99.90;;;;;;5017202;28;20131;-66
2021/05/27 11:58:58;;;;;;;1.45;0.20;;;10.40;99.90;;;;;;5016317;28;20068;-66
2021/05/27 12:01:27;;;;;;;0.20;0.20;;;10.40;99.90;;;;;;5012919;28;20054;-66
2021/05/27 12:04:10;;;;;;;0.10;0.10;;;10.50;99.90;;;;;;5021222;28;20045;-67
2021/05/27 12:06:50;;;;;;;1.27;0.20;;;10.50;99.90;;;;;;5015964;28;20457;-67
2021/05/27 12:09:21;;;;;;;0.60;0.20;;;10.70;99.90;;;;;;5017404;28;20053;-67
2021/05/27 12:11:48;;;;;;;1.85;0.30;;;10.70;99.90;;;;;;5015188;28;20044;-67
2021/05/27 12:14:16;;;;;;;0.10;0.10;;;10.70;99.90;;;;;;5021316;28;20081;-68
2021/05/27 12:16:42;;;;;;;0.40;0.40;;;10.40;99.90;;;;;;5018457;28;20466;-67
2021/05/27 12:19:13;;;;;;;0.65;0.28;;;10.30;99.90;;;;;;5014879;28;20494;-67
2021/05/27 12:21:57;;;;;;;0.63;0.38;;;10.40;99.90;;;;;;5014514;28;20057;-67
2021/05/27 12:24:29;;;;;;;0.82;0.25;;;10.40;99.90;;;;;;5019973;28;20053;-68
2021/05/27 12:26:57;;;;;;;0.85;0.30;;;10.50;99.90;;;;;;5019516;28;20053;-66
2021/05/27 12:29:25;;;;;;;0.68;0.35;;;10.60;99.90;;;;;;5014565;28;20046;-68
2021/05/27 12:31:53;;;;;;;0.40;0.32;;;10.50;99.90;;;;;;5019003;28;20038;-66
2021/05/27 12:34:21;;;;;;;0.20;0.20;;;10.50;99.90;;;;;;5012750;28;20042;-72
2021/05/27 12:37:00;;;;;;;0.20;0.10;;;10.30;99.90;;;;;;5015174;28;20049;-66
2021/05/27 12:39:35;;;;;;;0.20;0.20;;;10.30;99.90;;;;;;5020720;28;20045;-67
2021/05/27 12:42:09;;;;;;;0.40;0.30;;;10.30;99.90;;;;;;5016093;28;20050;-67
2021/05/27 12:44:44;;;;;;;0.60;0.30;;;10.40;99.90;;;;;;5016093;28;20202;-69
2021/05/27 12:47:12;;;;;;;1.95;0.20;;;10.20;99.90;;;;;;5019948;28;20833;-68
2021/05/27 12:49:39;;;;;;;0.77;0.35;;;10.10;99.90;;;;;;5015097;28;20495;-68
2021/05/27 12:52:06;;;;;;;2.42;0.30;;;10.30;99.90;;;;;;5020267;28;20038;-68
2021/05/27 12:54:33;;;;;;;0.20;0.20;;;10.40;99.90;;;;;;5016844;28;20095;-70
2021/05/27 12:57:05;;;;;;;0.05;0.05;;;10.30;99.90;;;;;;5014671;28;20116;-68
2021/05/27 12:59:34;;;;;;;1.08;0.20;;;10.30;99.90;;;;;;5015357;28;20068;-69
2021/05/27 13:02:02;;;;;;;0.10;0.10;;;10.30;99.90;;;;;;5020980;28;20065;-67
2021/05/27 13:04:33;;;;;;;0.32;0.28;;;10.40;99.90;;;;;;5017632;28;20045;-70
2021/05/27 13:07:12;;;;;;;3.50;0.50;;;10.20;99.90;;;;;;5017286;28;20097;-68
2021/05/27 13:09:47;;;;;;;0.50;0.28;;;10.20;99.90;;;;;;5017394;28;20049;-67
2021/05/27 13:12:16;;;;;;;0.10;0.10;;;10.00;99.90;;;;;;5015948;28;20436;-68
2021/05/27 13:15:01;;;;;;;0.47;0.20;;;10.00;99.90;;;;;;5033632;28;20620;-67
2021/05/27 13:17:28;;;;;;;0.43;0.38;;;9.80;99.90;;;;;;5018360;28;20138;-67
2021/05/27 13:19:56;;;;;;;0.85;0.40;;;9.90;99.90;;;;;;5021599;28;20045;-70
2021/05/27 13:22:28;;;;;;;0.52;0.30;;;10.00;99.90;;;;;;5014504;28;20061;-69